Time;durP1;ratioP1;P1;durP2;ratioP2;P2;SDS_P1;SDS_P2;PMS_P1;PMS_P2;Temp;Humidity;BMP_temperature;BMP_pressure;BME280_temperature;BME280_humidity;BME280_pressure;Samples;Min_cycle;Max_cycle;Signal;HPM_P1;HPM_P2
2021/03/10 00:01:02;;;;;;;;;8.33;8.33;;;;;;;;5067087;28;8801;-81
2021/03/10 00:03:29;;;;;;;;;11.33;10.00;;;;;;;;5066746;28;8840;-82
2021/03/10 00:05:56;;;;;;;;;6.33;5.33;;;;;;;;5050294;28;8996;-77
2021/03/10 00:08:23;;;;;;;;;10.67;9.00;;;;;;;;5074954;28;8854;-78
2021/03/10 00:10:50;;;;;;;;;9.00;9.00;;;;;;;;5069309;28;8906;-82
2021/03/10 00:13:16;;;;;;;;;6.67;6.67;;;;;;;;5067771;28;8958;-75
2021/03/10 00:15:44;;;;;;;;;11.00;10.67;;;;;;;;5048889;28;8889;-79
2021/03/10 00:18:11;;;;;;;;;9.00;9.00;;;;;;;;5067959;28;8880;-78
2021/03/10 00:20:38;;;;;;;;;6.00;6.00;;;;;;;;5068028;28;8864;-80
2021/03/10 00:23:05;;;;;;;;;7.00;7.00;;;;;;;;5066823;28;9032;-75
2021/03/10 00:25:32;;;;;;;;;11.33;9.67;;;;;;;;5067988;28;8852;-81
2021/03/10 00:27:58;;;;;;;;;13.00;9.67;;;;;;;;5056732;28;8880;-82
2021/03/10 00:30:26;;;;;;;;;14.33;14.33;;;;;;;;5048030;28;8804;-80
2021/03/10 00:32:54;;;;;;;;;12.33;12.33;;;;;;;;5066742;28;8966;-76
2021/03/10 00:35:21;;;;;;;;;13.67;12.67;;;;;;;;5066622;28;8991;-79
2021/03/10 00:37:48;;;;;;;;;12.67;12.67;;;;;;;;5048549;28;9002;-80
2021/03/10 00:40:15;;;;;;;;;10.00;10.00;;;;;;;;5066699;28;8868;-80
2021/03/10 00:42:41;;;;;;;;;9.67;9.67;;;;;;;;5067122;28;8880;-76
2021/03/10 00:45:11;;;;;;;;;5.33;5.33;;;;;;;;5066517;28;8906;-82
2021/03/10 00:47:38;;;;;;;;;10.00;10.00;;;;;;;;5066255;28;8864;-82
2021/03/10 00:50:07;;;;;;;;;10.00;10.00;;;;;;;;5056258;28;8856;-76
2021/03/10 00:52:34;;;;;;;;;12.33;12.33;;;;;;;;5067551;28;8982;-75
2021/03/10 00:55:01;;;;;;;;;22.00;22.00;;;;;;;;5065964;28;8968;-85
2021/03/10 00:57:28;;;;;;;;;28.67;25.67;;;;;;;;5067159;28;8860;-85
2021/03/10 00:59:54;;;;;;;;;31.00;29.67;;;;;;;;5057717;28;8902;-84
2021/03/10 01:02:21;;;;;;;;;32.33;32.33;;;;;;;;5065323;28;8817;-84
2021/03/10 01:04:48;;;;;;;;;35.33;32.33;;;;;;;;5067327;28;8867;-84
2021/03/10 01:07:16;;;;;;;;;19.00;19.00;;;;;;;;5066739;28;8898;-83
2021/03/10 01:09:43;;;;;;;;;28.67;28.67;;;;;;;;5077290;28;9386;-82
2021/03/10 01:12:10;;;;;;;;;34.67;34.00;;;;;;;;5066370;28;8876;-81
2021/03/10 01:14:37;;;;;;;;;28.00;28.00;;;;;;;;5067535;28;8900;-85
2021/03/10 01:17:04;;;;;;;;;31.67;30.67;;;;;;;;5066125;28;8888;-86
2021/03/10 01:19:31;;;;;;;;;22.67;22.67;;;;;;;;5048174;28;8873;-84
2021/03/10 01:21:57;;;;;;;;;26.67;25.67;;;;;;;;5067135;28;8866;-84
2021/03/10 01:24:25;;;;;;;;;18.00;18.00;;;;;;;;5066299;28;8894;-83
2021/03/10 01:26:52;;;;;;;;;25.33;25.33;;;;;;;;5066284;28;9014;-84
2021/03/10 01:29:20;;;;;;;;;21.00;21.00;;;;;;;;5066183;28;9602;-83
2021/03/10 01:31:47;;;;;;;;;27.33;24.33;;;;;;;;5067084;28;8810;-80
2021/03/10 01:34:15;;;;;;;;;22.00;22.00;;;;;;;;5065244;28;8856;-78
2021/03/10 01:36:42;;;;;;;;;21.67;21.67;;;;;;;;5052210;28;8965;-86
2021/03/10 01:39:09;;;;;;;;;21.33;21.33;;;;;;;;5064524;28;8983;-85
2021/03/10 01:41:38;;;;;;;;;25.67;25.67;;;;;;;;5062658;28;8856;-82
2021/03/10 01:44:05;;;;;;;;;28.00;27.00;;;;;;;;5066622;28;8861;-76
2021/03/10 01:46:40;;;;;;;;;21.00;21.00;;;;;;;;5065790;28;8856;-84
2021/03/10 01:49:07;;;;;;;;;25.00;24.00;;;;;;;;5067072;28;8874;-85
2021/03/10 01:51:34;;;;;;;;;19.00;19.00;;;;;;;;5065588;28;8868;-78
2021/03/10 01:54:01;;;;;;;;;21.67;21.67;;;;;;;;5066443;28;8926;-82
2021/03/10 01:56:29;;;;;;;;;19.33;19.33;;;;;;;;5055046;28;8864;-77
2021/03/10 01:58:57;;;;;;;;;18.00;18.00;;;;;;;;5064722;28;8872;-80
2021/03/10 02:01:24;;;;;;;;;16.67;16.67;;;;;;;;5063074;28;8933;-79
2021/03/10 02:03:50;;;;;;;;;22.67;19.00;;;;;;;;5063985;28;9619;-80
2021/03/10 02:06:26;;;;;;;;;21.00;21.00;;;;;;;;5064876;28;8891;-81
2021/03/10 02:08:57;;;;;;;;;18.00;18.00;;;;;;;;5047728;28;8836;-79
2021/03/10 02:11:31;;;;;;;;;18.67;18.67;;;;;;;;5065581;28;8886;-83
2021/03/10 02:14:14;;;;;;;;;21.00;21.00;;;;;;;;5065377;28;8856;-82
2021/03/10 02:16:46;;;;;;;;;18.33;18.33;;;;;;;;5056923;28;9038;-80
2021/03/10 02:19:29;;;;;;;;;15.00;15.00;;;;;;;;5066231;28;8883;-82
2021/03/10 02:22:01;;;;;;;;;16.67;16.67;;;;;;;;5060530;28;8853;-79
2021/03/10 02:24:37;;;;;;;;;18.00;18.00;;;;;;;;5064970;28;8921;-82
2021/03/10 02:27:33;;;;;;;;;16.67;16.67;;;;;;;;5064906;28;8840;-75
2021/03/10 02:30:06;;;;;;;;;18.00;16.00;;;;;;;;5062478;28;8876;-77
2021/03/10 02:32:35;;;;;;;;;18.67;18.67;;;;;;;;5065677;28;8882;-85
2021/03/10 02:35:04;;;;;;;;;25.00;24.00;;;;;;;;5063040;28;8868;-85
2021/03/10 02:37:32;;;;;;;;;14.33;14.33;;;;;;;;5063894;28;9014;-85
2021/03/10 02:39:59;;;;;;;;;22.00;22.00;;;;;;;;5046602;28;8848;-84
2021/03/10 02:42:28;;;;;;;;;16.67;16.67;;;;;;;;5064466;28;9015;-73
2021/03/10 02:44:57;;;;;;;;;22.33;22.33;;;;;;;;5062829;28;9681;-73
2021/03/10 02:47:25;;;;;;;;;25.33;22.33;;;;;;;;5061634;28;9029;-75
2021/03/10 02:49:53;;;;;;;;;23.33;22.33;;;;;;;;5043498;28;8880;-75
2021/03/10 02:52:20;;;;;;;;;20.33;20.33;;;;;;;;5059938;28;8892;-77
2021/03/10 02:54:48;;;;;;;;;22.00;22.00;;;;;;;;5064218;28;8878;-80
2021/03/10 02:57:15;;;;;;;;;18.00;18.00;;;;;;;;5064161;28;8860;-83
2021/03/10 02:59:45;;;;;;;;;24.67;24.67;;;;;;;;5064151;28;8962;-84
2021/03/10 03:02:12;;;;;;;;;19.67;19.67;;;;;;;;5055286;28;8841;-85
2021/03/10 03:04:39;;;;;;;;;22.00;22.00;;;;;;;;5063962;28;8928;-83
2021/03/10 03:07:06;;;;;;;;;17.67;17.67;;;;;;;;5063726;28;8982;-74
2021/03/10 03:09:34;;;;;;;;;18.00;18.00;;;;;;;;5045779;28;8864;-85
2021/03/10 03:12:03;;;;;;;;;15.33;15.33;;;;;;;;5064368;28;8997;-84
2021/03/10 03:14:32;;;;;;;;;20.67;20.67;;;;;;;;5062699;28;8966;-78
2021/03/10 03:17:00;;;;;;;;;20.33;20.33;;;;;;;;5063912;28;8876;-77
2021/03/10 03:19:29;;;;;;;;;20.00;20.00;;;;;;;;5065112;28;8866;-78
2021/03/10 03:21:56;;;;;;;;;19.67;19.67;;;;;;;;5063676;28;8852;-77
2021/03/10 03:24:25;;;;;;;;;27.33;27.33;;;;;;;;5064169;28;8880;-80
2021/03/10 03:26:52;;;;;;;;;18.67;18.67;;;;;;;;5044360;28;8940;-78
2021/03/10 03:29:19;;;;;;;;;21.67;21.67;;;;;;;;5065269;28;8992;-79
2021/03/10 03:31:47;;;;;;;;;32.00;31.33;;;;;;;;5048645;28;8867;-85
2021/03/10 03:34:14;;;;;;;;;28.00;28.00;;;;;;;;5043831;28;9007;-82
2021/03/10 03:36:42;;;;;;;;;23.67;23.67;;;;;;;;5044140;28;8988;-86
2021/03/10 03:39:10;;;;;;;;;29.67;29.67;;;;;;;;5043165;28;8882;-85
2021/03/10 03:41:37;;;;;;;;;28.00;28.00;;;;;;;;5041429;28;8874;-82
2021/03/10 03:44:04;;;;;;;;;32.33;31.67;;;;;;;;5034706;28;8844;-86
2021/03/10 03:46:31;;;;;;;;;22.00;22.00;;;;;;;;5044317;28;8880;-86
2021/03/10 03:48:59;;;;;;;;;27.00;27.00;;;;;;;;5024181;28;8909;-86
2021/03/10 03:51:28;;;;;;;;;27.33;27.33;;;;;;;;5041693;28;9733;-86
2021/03/10 03:53:57;;;;;;;;;34.33;34.33;;;;;;;;5044456;28;8848;-86
2021/03/10 03:56:25;;;;;;;;;27.00;27.00;;;;;;;;5025674;28;8852;-84
2021/03/10 03:58:51;;;;;;;;;26.33;26.33;;;;;;;;5043660;28;8878;-85
2021/03/10 04:01:19;;;;;;;;;30.33;30.33;;;;;;;;5042341;28;8833;-86
2021/03/10 04:03:46;;;;;;;;;24.00;24.00;;;;;;;;5043942;28;8999;-81
2021/03/10 04:06:14;;;;;;;;;30.00;27.67;;;;;;;;5039484;28;8939;-85
2021/03/10 04:08:42;;;;;;;;;36.33;31.67;;;;;;;;5044760;28;8935;-85
2021/03/10 04:11:13;;;;;;;;;24.00;24.00;;;;;;;;5043639;28;8829;-84
2021/03/10 04:13:41;;;;;;;;;23.33;23.33;;;;;;;;5043469;28;9697;-79
2021/03/10 04:16:08;;;;;;;;;27.33;27.33;;;;;;;;5044155;28;8984;-86
2021/03/10 04:18:37;;;;;;;;;24.00;24.00;;;;;;;;5042114;28;8888;-81
2021/03/10 04:21:04;;;;;;;;;25.00;25.00;;;;;;;;5044149;28;8857;-82
2021/03/10 04:23:31;;;;;;;;;36.00;31.67;;;;;;;;5041233;28;8886;-73
2021/03/10 04:25:59;;;;;;;;;29.00;29.00;;;;;;;;5044176;28;8865;-75
2021/03/10 04:28:27;;;;;;;;;30.00;27.33;;;;;;;;5024774;28;8870;-73
2021/03/10 04:30:57;;;;;;;;;26.33;26.33;;;;;;;;5032455;28;9717;-77
2021/03/10 04:33:24;;;;;;;;;31.00;28.00;;;;;;;;5043844;28;8870;-76
2021/03/10 04:35:51;;;;;;;;;19.00;18.33;;;;;;;;5042308;28;9710;-78
2021/03/10 04:38:18;;;;;;;;;19.67;19.67;;;;;;;;5037298;28;9021;-78
2021/03/10 04:40:45;;;;;;;;;25.00;25.00;;;;;;;;5053913;28;8964;-75
2021/03/10 04:43:14;;;;;;;;;27.33;25.67;;;;;;;;5059522;28;8962;-75
2021/03/10 04:45:42;;;;;;;;;22.00;22.00;;;;;;;;5059542;28;8881;-78
2021/03/10 04:48:09;;;;;;;;;13.33;13.33;;;;;;;;5051480;28;8996;-80
2021/03/10 04:50:36;;;;;;;;;22.67;22.67;;;;;;;;5057632;28;8940;-77
2021/03/10 04:53:03;;;;;;;;;23.33;23.33;;;;;;;;5057686;28;8877;-76
2021/03/10 04:55:30;;;;;;;;;20.67;20.67;;;;;;;;5055975;28;8850;-79
2021/03/10 04:57:57;;;;;;;;;17.33;17.33;;;;;;;;5050451;28;8912;-78
2021/03/10 05:00:24;;;;;;;;;20.33;20.33;;;;;;;;5051211;28;8773;-77
2021/03/10 05:02:52;;;;;;;;;26.33;24.67;;;;;;;;5046858;28;9032;-81
2021/03/10 05:05:19;;;;;;;;;22.00;21.67;;;;;;;;5049681;28;8916;-79
2021/03/10 05:07:47;;;;;;;;;30.33;30.33;;;;;;;;5048808;28;8861;-84
2021/03/10 05:10:14;;;;;;;;;27.67;25.67;;;;;;;;5041971;28;9620;-80
2021/03/10 05:12:41;;;;;;;;;39.00;34.33;;;;;;;;5044630;28;8926;-82
2021/03/10 05:15:09;;;;;;;;;38.67;38.67;;;;;;;;5048883;28;8953;-74
2021/03/10 05:17:37;;;;;;;;;45.33;38.33;;;;;;;;5047347;28;9011;-79
2021/03/10 05:20:07;;;;;;;;;37.67;36.33;;;;;;;;5047249;28;8984;-77
2021/03/10 05:22:34;;;;;;;;;39.67;39.67;;;;;;;;5035066;28;8845;-77
2021/03/10 05:25:02;;;;;;;;;36.67;35.33;;;;;;;;5046034;28;8854;-79
2021/03/10 05:27:30;;;;;;;;;33.33;33.33;;;;;;;;5047188;28;8857;-81
2021/03/10 05:29:58;;;;;;;;;36.67;34.00;;;;;;;;5046338;28;8857;-78
2021/03/10 05:32:25;;;;;;;;;41.67;37.67;;;;;;;;5046081;28;8813;-79
2021/03/10 05:34:52;;;;;;;;;36.33;33.33;;;;;;;;5047304;28;10512;-79
2021/03/10 05:37:20;;;;;;;;;46.00;34.67;;;;;;;;5045444;28;9631;-85
2021/03/10 05:39:47;;;;;;;;;37.00;35.33;;;;;;;;5043225;28;8869;-80
2021/03/10 05:42:14;;;;;;;;;37.00;31.67;;;;;;;;5045702;28;8889;-80
2021/03/10 05:44:41;;;;;;;;;38.67;35.67;;;;;;;;5043053;28;8893;-79
2021/03/10 05:47:08;;;;;;;;;31.00;31.00;;;;;;;;5046133;28;8957;-79
2021/03/10 05:49:35;;;;;;;;;44.67;37.67;;;;;;;;5044561;28;8911;-78
2021/03/10 05:52:08;;;;;;;;;28.33;25.33;;;;;;;;5046905;28;8885;-76
2021/03/10 05:54:37;;;;;;;;;29.00;28.33;;;;;;;;5044865;28;9470;-78
2021/03/10 05:57:06;;;;;;;;;42.33;35.67;;;;;;;;5045293;28;8885;-78
2021/03/10 05:59:32;;;;;;;;;28.00;27.00;;;;;;;;5044155;28;8853;-77
2021/03/10 06:02:00;;;;;;;;;28.00;27.67;;;;;;;;5045730;28;8826;-79
2021/03/10 06:04:37;;;;;;;;;38.00;35.33;;;;;;;;5045672;28;8942;-76
2021/03/10 06:07:04;;;;;;;;;28.00;25.67;;;;;;;;5044605;28;8972;-74
2021/03/10 06:09:32;;;;;;;;;26.00;23.00;;;;;;;;5050568;28;8849;-73
2021/03/10 06:12:02;;;;;;;;;32.33;31.00;;;;;;;;5041242;28;8941;-75
2021/03/10 06:14:31;;;;;;;;;37.33;35.33;;;;;;;;5042108;28;8858;-75
2021/03/10 06:17:02;;;;;;;;;31.33;28.67;;;;;;;;5041250;28;8865;-77
2021/03/10 06:19:28;;;;;;;;;30.67;26.00;;;;;;;;5045714;28;8857;-81
2021/03/10 06:21:55;;;;;;;;;26.33;25.00;;;;;;;;5042064;28;8830;-77
2021/03/10 06:24:32;;;;;;;;;34.67;29.67;;;;;;;;5040105;28;8962;-79
2021/03/10 06:27:00;;;;;;;;;30.33;24.00;;;;;;;;5038169;28;9650;-74
2021/03/10 06:29:27;;;;;;;;;28.00;25.00;;;;;;;;5039413;28;8885;-73
2021/03/10 06:32:03;;;;;;;;;18.67;16.00;;;;;;;;5036250;28;9618;-72
2021/03/10 06:34:30;;;;;;;;;23.67;20.00;;;;;;;;5039709;28;11620;-73
2021/03/10 06:36:57;;;;;;;;;19.00;19.00;;;;;;;;5043298;28;8869;-72
2021/03/10 06:39:26;;;;;;;;;30.67;23.00;;;;;;;;5039374;28;11617;-74
2021/03/10 06:41:53;;;;;;;;;20.00;16.67;;;;;;;;5041845;28;11688;-73
2021/03/10 06:44:23;;;;;;;;;20.00;17.00;;;;;;;;5041493;28;12469;-79
2021/03/10 06:46:55;;;;;;;;;21.00;20.67;;;;;;;;5039258;28;11613;-78
2021/03/10 06:49:22;;;;;;;;;21.00;18.67;;;;;;;;5043584;28;11621;-74
2021/03/10 06:51:53;;;;;;;;;21.00;16.50;;;;;;;;5036746;28;11572;-74
2021/03/10 06:54:21;;;;;;;;;20.75;18.50;;;;;;;;5043378;28;11580;-74
2021/03/10 06:56:59;;;;;;;;;19.50;16.50;;;;;;;;5041916;28;11605;-73
2021/03/10 06:59:38;;;;;;;;;22.00;19.00;;;;;;;;5041053;28;11702;-77
2021/03/10 07:02:06;;;;;;;;;15.25;15.25;;;;;;;;5044039;28;11521;-72
2021/03/10 07:04:34;;;;;;;;;21.75;17.25;;;;;;;;5043107;28;11795;-78
2021/03/10 07:07:01;;;;;;;;;27.25;26.00;;;;;;;;5043216;28;11567;-78
2021/03/10 07:09:29;;;;;;;;;31.50;27.00;;;;;;;;5041515;28;12431;-76
2021/03/10 07:11:56;;;;;;;;;21.50;21.50;;;;;;;;5044001;28;11572;-77
2021/03/10 07:14:26;;;;;;;;;27.25;24.50;;;;;;;;5042152;28;11679;-78
2021/03/10 07:16:54;;;;;;;;;16.75;16.75;;;;;;;;5043579;28;11602;-79
2021/03/10 07:19:21;;;;;;;;;25.00;25.00;;;;;;;;5042197;28;11577;-76
2021/03/10 07:21:50;;;;;;;;;45.25;36.25;;;;;;;;5019831;28;12369;-78
2021/03/10 07:24:20;;;;;;;;;42.75;37.25;;;;;;;;5026427;28;11665;-76
2021/03/10 07:26:48;;;;;;;;;36.25;33.25;;;;;;;;5042875;28;11633;-81
2021/03/10 07:29:15;;;;;;;;;39.50;35.25;;;;;;;;5044283;28;11600;-78
2021/03/10 07:31:45;;;;;;;;;36.00;34.25;;;;;;;;5040884;28;11552;-77
2021/03/10 07:34:14;;;;;;;;;40.00;33.50;;;;;;;;5043140;28;11621;-79
2021/03/10 07:36:42;;;;;;;;;35.00;32.00;;;;;;;;5039700;28;11610;-77
2021/03/10 07:39:21;;;;;;;;;33.00;30.50;;;;;;;;5035492;28;11646;-77
2021/03/10 07:41:49;;;;;;;;;33.00;30.75;;;;;;;;5038503;28;11587;-77
2021/03/10 07:44:18;;;;;;;;;40.75;39.50;;;;;;;;5034573;28;11613;-74
2021/03/10 07:46:45;;;;;;;;;43.00;34.75;;;;;;;;5043055;28;11643;-80
2021/03/10 07:49:22;;;;;;;;;39.75;35.00;;;;;;;;5041498;28;12438;-78
2021/03/10 07:51:50;;;;;;;;;37.75;30.75;;;;;;;;5041827;28;11738;-78
2021/03/10 07:54:19;;;;;;;;;36.75;34.50;;;;;;;;5042301;28;11710;-71
2021/03/10 07:56:46;;;;;;;;;45.75;40.75;;;;;;;;5036723;28;11594;-70
2021/03/10 07:59:14;;;;;;;;;65.67;50.67;;;;;;;;5039591;28;11637;-70
2021/03/10 08:01:42;;;;;;;;;35.50;33.75;;;;;;;;5039106;28;11597;-69
2021/03/10 08:04:13;;;;;;;;;43.25;40.00;;;;;;;;5044259;28;11689;-70
2021/03/10 08:06:52;;;;;;;;;45.25;41.00;;;;;;;;5041364;28;11590;-70
2021/03/10 08:09:21;;;;;;;;;49.75;37.75;;;;;;;;5041782;28;11630;-69
2021/03/10 08:11:49;;;;;;;;;46.00;38.75;;;;;;;;5045525;28;11613;-70
2021/03/10 08:14:17;;;;;;;;;50.50;43.50;;;;;;;;5046159;28;11603;-71
2021/03/10 08:16:48;;;;;;;;;53.50;44.75;;;;;;;;5046883;28;11609;-71
2021/03/10 08:19:20;;;;;;;;;41.75;38.75;;;;;;;;5046519;28;11618;-70
2021/03/10 08:21:51;;;;;;;;;55.00;45.50;;;;;;;;5047334;28;11763;-68
2021/03/10 08:24:18;;;;;;;;;57.00;44.00;;;;;;;;5045989;28;11588;-70
2021/03/10 08:26:50;;;;;;;;;0.00;0.00;;;;;;;;5045969;28;11751;-70
2021/03/10 08:29:17;;;;;;;;;47.25;41.75;;;;;;;;5034842;28;11513;-70
2021/03/10 08:31:47;;;;;;;;;52.00;44.00;;;;;;;;5047797;28;11541;-70
2021/03/10 08:34:15;;;;;;;;;56.25;40.50;;;;;;;;5047341;28;11629;-70
2021/03/10 08:36:42;;;;;;;;;55.25;46.00;;;;;;;;5045877;28;11624;-69
2021/03/10 08:39:12;;;;;;;;;49.25;42.00;;;;;;;;5047273;28;11661;-70
2021/03/10 08:41:49;;;;;;;;;56.00;44.25;;;;;;;;5046191;28;11632;-70
2021/03/10 08:44:19;;;;;;;;;46.50;43.50;;;;;;;;5045695;28;11680;-69
2021/03/10 08:46:47;;;;;;;;;50.75;44.00;;;;;;;;5046530;28;11689;-71
2021/03/10 08:49:19;;;;;;;;;56.50;46.25;;;;;;;;5039250;28;11599;-70
2021/03/10 08:51:46;;;;;;;;;64.25;49.75;;;;;;;;5046691;28;12607;-70
2021/03/10 08:54:16;;;;;;;;;58.75;43.50;;;;;;;;5045829;28;12463;-70
2021/03/10 08:56:49;;;;;;;;;47.75;42.75;;;;;;;;5046714;28;11063;-71
2021/03/10 08:59:17;;;;;;;;;54.50;45.00;;;;;;;;5046477;28;11583;-70
2021/03/10 09:01:50;;;;;;;;;51.00;43.50;;;;;;;;5044995;28;11677;-70
2021/03/10 09:04:24;;;;;;;;;54.00;43.75;;;;;;;;5046673;28;11601;-70
2021/03/10 09:06:52;;;;;;;;;55.25;46.00;;;;;;;;5045146;28;11611;-70
2021/03/10 09:09:20;;;;;;;;;58.25;46.00;;;;;;;;5046726;28;11620;-70
2021/03/10 09:11:48;;;;;;;;;56.75;47.25;;;;;;;;5045594;28;11578;-70
2021/03/10 09:14:15;;;;;;;;;56.00;42.00;;;;;;;;5045857;28;11615;-70
2021/03/10 09:16:56;;;;;;;;;46.00;41.25;;;;;;;;5045724;28;11724;-70
2021/03/10 09:19:34;;;;;;;;;54.75;45.00;;;;;;;;5045456;28;11723;-70
2021/03/10 09:22:22;;;;;;;;;53.50;44.25;;;;;;;;5056212;28;11624;-71
2021/03/10 09:24:53;;;;;;;;;57.50;47.00;;;;;;;;5043699;28;11689;-71
2021/03/10 09:27:27;;;;;;;;;54.00;46.00;;;;;;;;5045074;28;11658;-70
2021/03/10 09:29:55;;;;;;;;;58.50;47.50;;;;;;;;5046402;28;12560;-70
2021/03/10 09:32:22;;;;;;;;;50.50;42.50;;;;;;;;5044630;28;11677;-71
2021/03/10 09:34:51;;;;;;;;;51.25;43.25;;;;;;;;5044858;28;11619;-71
2021/03/10 09:37:22;;;;;;;;;53.25;45.00;;;;;;;;5044481;28;11667;-72
2021/03/10 09:39:52;;;;;;;;;58.75;45.00;;;;;;;;5045238;28;11696;-70
2021/03/10 09:42:20;;;;;;;;;55.00;47.50;;;;;;;;5044010;28;11657;-71
2021/03/10 09:44:49;;;;;;;;;52.25;43.50;;;;;;;;5043241;28;11632;-71
2021/03/10 09:47:22;;;;;;;;;53.75;47.25;;;;;;;;5045600;28;11622;-73
2021/03/10 09:49:51;;;;;;;;;53.50;44.00;;;;;;;;5041518;28;11549;-72
2021/03/10 09:52:30;;;;;;;;;57.75;48.00;;;;;;;;5041840;28;11597;-70
2021/03/10 09:54:58;;;;;;;;;45.75;41.00;;;;;;;;5043975;28;11680;-71
2021/03/10 09:57:28;;;;;;;;;50.75;42.00;;;;;;;;5044559;28;11589;-71
2021/03/10 09:59:56;;;;;;;;;54.00;46.25;;;;;;;;5045425;28;11520;-72
2021/03/10 10:02:27;;;;;;;;;57.50;46.00;;;;;;;;5060305;28;11466;-72
2021/03/10 10:04:58;;;;;;;;;51.25;41.50;;;;;;;;5065150;28;11499;-70
2021/03/10 10:07:26;;;;;;;;;59.50;48.25;;;;;;;;5063988;28;11517;-71
2021/03/10 10:09:53;;;;;;;;;59.00;44.75;;;;;;;;5062689;28;11501;-70
2021/03/10 10:12:21;;;;;;;;;58.50;45.50;;;;;;;;5052571;28;11580;-72
2021/03/10 10:14:48;;;;;;;;;54.25;45.25;;;;;;;;5046361;28;11496;-71
2021/03/10 10:17:16;;;;;;;;;60.75;46.25;;;;;;;;5061298;28;11530;-70
2021/03/10 10:19:43;;;;;;;;;53.50;43.00;;;;;;;;5064596;28;11523;-70
2021/03/10 10:22:11;;;;;;;;;46.75;42.00;;;;;;;;5064307;28;11637;-71
2021/03/10 10:24:38;;;;;;;;;54.25;44.50;;;;;;;;5064269;28;11520;-71
2021/03/10 10:27:05;;;;;;;;;53.75;42.50;;;;;;;;5064259;28;11478;-71
2021/03/10 10:29:33;;;;;;;;;47.00;41.00;;;;;;;;5064291;28;11508;-71
2021/03/10 10:32:00;;;;;;;;;57.50;44.75;;;;;;;;5051659;28;11439;-70
2021/03/10 10:34:27;;;;;;;;;53.00;43.50;;;;;;;;5071445;28;11614;-71
2021/03/10 10:36:53;;;;;;;;;50.75;42.25;;;;;;;;5063662;28;11471;-71
2021/03/10 10:39:20;;;;;;;;;47.50;40.25;;;;;;;;5065145;28;11490;-71
2021/03/10 10:41:47;;;;;;;;;57.00;43.50;;;;;;;;5063356;28;11511;-70
2021/03/10 10:44:14;;;;;;;;;50.25;43.25;;;;;;;;5064721;28;11505;-71
2021/03/10 10:46:43;;;;;;;;;49.50;41.75;;;;;;;;5063316;28;11599;-72
2021/03/10 10:49:09;;;;;;;;;48.25;40.00;;;;;;;;5064266;28;11490;-71
2021/03/10 10:51:36;;;;;;;;;55.50;43.00;;;;;;;;5050960;28;11299;-70
2021/03/10 10:54:03;;;;;;;;;58.75;42.75;;;;;;;;5064146;28;11336;-70
2021/03/10 10:56:30;;;;;;;;;52.00;42.50;;;;;;;;5064655;28;11507;-70
2021/03/10 10:58:57;;;;;;;;;42.75;38.75;;;;;;;;5062907;28;11488;-71
2021/03/10 11:01:24;;;;;;;;;50.75;43.50;;;;;;;;5063175;28;11548;-70
2021/03/10 11:03:52;;;;;;;;;34.75;23.75;;;;;;;;5061337;28;11528;-72
2021/03/10 11:06:19;;;;;;;;;54.75;44.25;;;;;;;;5057681;28;11512;-71
2021/03/10 11:08:45;;;;;;;;;46.00;40.25;;;;;;;;5059123;28;11479;-70
2021/03/10 11:11:12;;;;;;;;;45.75;40.50;;;;;;;;5062298;28;11543;-71
2021/03/10 11:13:39;;;;;;;;;56.25;44.00;;;;;;;;5044147;28;11471;-70
2021/03/10 11:16:06;;;;;;;;;48.50;41.00;;;;;;;;5044653;28;11631;-70
2021/03/10 11:18:33;;;;;;;;;52.00;40.75;;;;;;;;5063600;28;11503;-70
2021/03/10 11:21:02;;;;;;;;;45.25;38.25;;;;;;;;5046715;28;11499;-70
2021/03/10 11:23:28;;;;;;;;;47.00;40.50;;;;;;;;5062225;28;11629;-70
2021/03/10 11:25:55;;;;;;;;;43.25;37.25;;;;;;;;5062292;28;11259;-70
2021/03/10 11:28:25;;;;;;;;;46.50;41.75;;;;;;;;5063380;28;11545;-71
2021/03/10 11:30:53;;;;;;;;;54.50;41.25;;;;;;;;5043843;28;11514;-72
2021/03/10 11:33:19;;;;;;;;;35.50;33.50;;;;;;;;5044754;28;11630;-72
2021/03/10 11:35:46;;;;;;;;;38.25;34.75;;;;;;;;5063227;28;11279;-72
2021/03/10 11:38:14;;;;;;;;;47.25;39.00;;;;;;;;5062270;28;11174;-71
2021/03/10 11:40:41;;;;;;;;;47.50;40.00;;;;;;;;5061048;28;11262;-70
2021/03/10 11:43:08;;;;;;;;;39.75;34.50;;;;;;;;5058871;28;11263;-70
2021/03/10 11:45:36;;;;;;;;;37.00;34.25;;;;;;;;5062256;28;11020;-70
2021/03/10 11:48:03;;;;;;;;;55.00;43.00;;;;;;;;5063531;28;10995;-71
2021/03/10 11:50:30;;;;;;;;;48.00;36.50;;;;;;;;5066505;28;12054;-72
2021/03/10 11:52:57;;;;;;;;;46.25;39.50;;;;;;;;5066173;28;11075;-72
2021/03/10 11:55:24;;;;;;;;;50.75;38.00;;;;;;;;5065935;28;11852;-70
2021/03/10 11:57:51;;;;;;;;;42.50;39.25;;;;;;;;5064624;28;11347;-71
2021/03/10 12:00:19;;;;;;;;;53.75;43.00;;;;;;;;5064945;28;11988;-73
2021/03/10 12:02:45;;;;;;;;;57.25;42.75;;;;;;;;5067382;28;11013;-72
2021/03/10 12:05:14;;;;;;;;;43.75;39.00;;;;;;;;5065776;28;10930;-71
2021/03/10 12:07:41;;;;;;;;;44.25;38.00;;;;;;;;5065785;28;10874;-71
2021/03/10 12:10:09;;;;;;;;;43.25;36.50;;;;;;;;5049504;28;10821;-70
2021/03/10 12:12:37;;;;;;;;;43.25;38.00;;;;;;;;5064809;28;10893;-72
2021/03/10 12:15:04;;;;;;;;;58.25;40.50;;;;;;;;5067459;28;11026;-72
2021/03/10 12:17:31;;;;;;;;;54.75;42.75;;;;;;;;5065100;28;10948;-71
2021/03/10 12:19:58;;;;;;;;;36.50;32.50;;;;;;;;5064832;28;11076;-71
2021/03/10 12:22:25;;;;;;;;;53.25;42.75;;;;;;;;5062868;28;11014;-71
2021/03/10 12:24:52;;;;;;;;;52.00;41.75;;;;;;;;5065748;28;11266;-71
2021/03/10 12:27:24;;;;;;;;;41.50;36.00;;;;;;;;5062389;28;10973;-72
2021/03/10 12:29:53;;;;;;;;;46.50;39.25;;;;;;;;5062470;28;10930;-71
2021/03/10 12:32:20;;;;;;;;;51.50;42.25;;;;;;;;5068760;28;11012;-71
2021/03/10 12:34:48;;;;;;;;;49.00;40.75;;;;;;;;5064826;28;10757;-72
2021/03/10 12:37:16;;;;;;;;;44.50;38.00;;;;;;;;5064979;28;10826;-71
2021/03/10 12:39:42;;;;;;;;;49.75;41.50;;;;;;;;5062714;28;10627;-71
2021/03/10 12:42:09;;;;;;;;;46.75;39.75;;;;;;;;5065767;28;10573;-73
2021/03/10 12:44:37;;;;;;;;;44.00;38.00;;;;;;;;5047902;28;10880;-70
2021/03/10 12:47:05;;;;;;;;;53.25;42.75;;;;;;;;5064002;28;10688;-69
2021/03/10 12:49:32;;;;;;;;;41.00;33.50;;;;;;;;5060728;28;10747;-70
2021/03/10 12:51:59;;;;;;;;;54.75;44.75;;;;;;;;5061159;28;10761;-71
2021/03/10 12:54:26;;;;;;;;;51.50;41.50;;;;;;;;5065638;28;11050;-70
2021/03/10 12:56:54;;;;;;;;;49.50;42.75;;;;;;;;5063199;28;11004;-72
2021/03/10 12:59:21;;;;;;;;;46.00;40.00;;;;;;;;5063387;28;10988;-71
2021/03/10 13:01:48;;;;;;;;;49.75;42.00;;;;;;;;5064967;28;11073;-72
2021/03/10 13:04:16;;;;;;;;;52.25;44.00;;;;;;;;5064004;28;10963;-70
2021/03/10 13:06:43;;;;;;;;;49.00;39.75;;;;;;;;5065560;28;11276;-70
2021/03/10 13:09:10;;;;;;;;;50.00;41.50;;;;;;;;5063553;28;11972;-73
2021/03/10 13:11:37;;;;;;;;;52.00;43.00;;;;;;;;5047425;28;11878;-70
2021/03/10 13:14:04;;;;;;;;;51.00;42.50;;;;;;;;5063402;28;11154;-71
2021/03/10 13:16:31;;;;;;;;;50.50;42.25;;;;;;;;5064044;28;11101;-71
2021/03/10 13:18:58;;;;;;;;;57.75;48.50;;;;;;;;5063465;28;11134;-70
2021/03/10 13:21:27;;;;;;;;;49.75;41.75;;;;;;;;5066007;28;11166;-70
2021/03/10 13:23:54;;;;;;;;;53.75;44.75;;;;;;;;5065509;28;11131;-70
2021/03/10 13:26:21;;;;;;;;;49.00;39.50;;;;;;;;5064245;28;11231;-69
2021/03/10 13:28:49;;;;;;;;;56.00;42.75;;;;;;;;5065261;28;11097;-69
2021/03/10 13:31:17;;;;;;;;;49.50;42.00;;;;;;;;5079568;28;11167;-69
2021/03/10 13:33:45;;;;;;;;;51.25;43.00;;;;;;;;5072281;28;12563;-69
2021/03/10 13:36:13;;;;;;;;;56.50;45.75;;;;;;;;5047117;28;11081;-70
2021/03/10 13:38:41;;;;;;;;;55.25;44.25;;;;;;;;5066221;28;11230;-70
2021/03/10 13:41:08;;;;;;;;;53.25;42.25;;;;;;;;5065526;28;12105;-70
2021/03/10 13:43:35;;;;;;;;;54.25;46.50;;;;;;;;5064936;28;12764;-69
2021/03/10 13:46:02;;;;;;;;;53.00;42.00;;;;;;;;5065776;28;11485;-70
2021/03/10 13:48:30;;;;;;;;;57.75;47.00;;;;;;;;5064653;28;11523;-70
2021/03/10 13:50:57;;;;;;;;;48.50;41.25;;;;;;;;5064841;28;11622;-69
2021/03/10 13:53:25;;;;;;;;;62.50;51.25;;;;;;;;5063816;28;11571;-70
2021/03/10 13:55:53;;;;;;;;;51.00;42.00;;;;;;;;5064782;28;11513;-70
2021/03/10 13:58:20;;;;;;;;;53.25;44.25;;;;;;;;5058554;28;11514;-71
2021/03/10 14:00:48;;;;;;;;;55.00;45.75;;;;;;;;5061615;28;11454;-71
2021/03/10 14:03:15;;;;;;;;;50.50;42.00;;;;;;;;5058952;28;11500;-71
2021/03/10 14:05:42;;;;;;;;;58.25;46.50;;;;;;;;5056047;28;11523;-71
2021/03/10 14:08:09;;;;;;;;;57.75;47.25;;;;;;;;5062296;28;11523;-72
2021/03/10 14:10:36;;;;;;;;;56.25;43.00;;;;;;;;5063942;28;11557;-72
2021/03/10 14:13:03;;;;;;;;;55.75;45.75;;;;;;;;5060641;28;11619;-71
2021/03/10 14:15:30;;;;;;;;;38.25;34.25;;;;;;;;5060588;28;12415;-72
2021/03/10 14:17:57;;;;;;;;;55.75;44.00;;;;;;;;5064256;28;11488;-72
2021/03/10 14:20:27;;;;;;;;;51.75;43.25;;;;;;;;5063820;28;11491;-72
2021/03/10 14:22:54;;;;;;;;;48.00;41.50;;;;;;;;5062602;28;11298;-71
2021/03/10 14:25:21;;;;;;;;;54.75;42.75;;;;;;;;5065167;28;11482;-72
2021/03/10 14:27:48;;;;;;;;;44.25;39.75;;;;;;;;5062247;28;11746;-71
2021/03/10 14:30:17;;;;;;;;;44.50;37.75;;;;;;;;5064091;28;11548;-71